sensor_id;sensor_type;location;lat;lon;timestamp;temperature;humidity
54578;DHT22;40474;49.330;8.130;2022-09-03T00:02:15;20.40;58.90
54578;DHT22;40474;49.330;8.130;2022-09-03T00:13:09;20.30;59.40
54578;DHT22;40474;49.330;8.130;2022-09-03T00:15:39;20.30;59.40
54578;DHT22;40474;49.330;8.130;2022-09-03T00:18:11;20.30;60.40
54578;DHT22;40474;49.330;8.130;2022-09-03T00:20:40;20.30;61.20
54578;DHT22;40474;49.330;8.130;2022-09-03T00:23:09;20.20;60.00
54578;DHT22;40474;49.330;8.130;2022-09-03T00:25:42;20.20;60.70
54578;DHT22;40474;49.330;8.130;2022-09-03T00:28:12;20.20;61.20
54578;DHT22;40474;49.330;8.130;2022-09-03T00:30:40;20.10;61.30
54578;DHT22;40474;49.330;8.130;2022-09-03T00:33:10;20.10;61.70
54578;DHT22;40474;49.330;8.130;2022-09-03T00:35:43;20.10;62.10
54578;DHT22;40474;49.330;8.130;2022-09-03T00:38:11;20.00;62.30
54578;DHT22;40474;49.330;8.130;2022-09-03T00:53:35;20.00;61.20
54578;DHT22;40474;49.330;8.130;2022-09-03T01:01:23;19.80;62.60
54578;DHT22;40474;49.330;8.130;2022-09-03T01:04:00;19.70;63.50
54578;DHT22;40474;49.330;8.130;2022-09-03T01:06:37;19.70;63.00
54578;DHT22;40474;49.330;8.130;2022-09-03T01:12:04;19.60;63.80
54578;DHT22;40474;49.330;8.130;2022-09-03T01:20:02;19.60;62.70
54578;DHT22;40474;49.330;8.130;2022-09-03T01:30:04;19.50;63.40
54578;DHT22;40474;49.330;8.130;2022-09-03T01:32:47;19.60;63.80
54578;DHT22;40474;49.330;8.130;2022-09-03T01:38:06;19.60;62.80
54578;DHT22;40474;49.330;8.130;2022-09-03T01:40:46;19.60;63.40
54578;DHT22;40474;49.330;8.130;2022-09-03T01:45:54;19.40;64.00
54578;DHT22;40474;49.330;8.130;2022-09-03T01:48:31;19.30;65.50
54578;DHT22;40474;49.330;8.130;2022-09-03T01:56:16;19.00;65.60
54578;DHT22;40474;49.330;8.130;2022-09-03T01:58:46;18.90;66.50
54578;DHT22;40474;49.330;8.130;2022-09-03T02:01:21;18.80;66.50
54578;DHT22;40474;49.330;8.130;2022-09-03T02:03:50;18.80;66.00
54578;DHT22;40474;49.330;8.130;2022-09-03T02:06:16;18.80;65.80
54578;DHT22;40474;49.330;8.130;2022-09-03T02:08:46;18.70;66.80
54578;DHT22;40474;49.330;8.130;2022-09-03T02:11:12;18.70;66.30
54578;DHT22;40474;49.330;8.130;2022-09-03T02:16:09;18.70;65.80
54578;DHT22;40474;49.330;8.130;2022-09-03T02:18:38;18.70;66.90
54578;DHT22;40474;49.330;8.130;2022-09-03T02:21:07;18.80;67.00
54578;DHT22;40474;49.330;8.130;2022-09-03T02:23:37;18.80;66.50
54578;DHT22;40474;49.330;8.130;2022-09-03T02:26:04;18.80;66.40
54578;DHT22;40474;49.330;8.130;2022-09-03T02:28:32;18.80;66.30
54578;DHT22;40474;49.330;8.130;2022-09-03T02:30:59;18.80;66.90
54578;DHT22;40474;49.330;8.130;2022-09-03T02:33:26;18.70;67.40
54578;DHT22;40474;49.330;8.130;2022-09-03T02:35:53;18.80;67.20
54578;DHT22;40474;49.330;8.130;2022-09-03T02:38:21;18.70;67.70
54578;DHT22;40474;49.330;8.130;2022-09-03T02:40:51;18.70;67.60
54578;DHT22;40474;49.330;8.130;2022-09-03T02:43:26;18.70;68.80
54578;DHT22;40474;49.330;8.130;2022-09-03T02:45:56;18.70;68.40
54578;DHT22;40474;49.330;8.130;2022-09-03T02:48:27;18.70;68.20
54578;DHT22;40474;49.330;8.130;2022-09-03T02:50:54;18.70;68.30
54578;DHT22;40474;49.330;8.130;2022-09-03T02:53:21;18.70;68.00
54578;DHT22;40474;49.330;8.130;2022-09-03T02:55:48;18.60;68.50
54578;DHT22;40474;49.330;8.130;2022-09-03T02:58:15;18.60;69.10
54578;DHT22;40474;49.330;8.130;2022-09-03T03:00:41;18.60;69.20
54578;DHT22;40474;49.330;8.130;2022-09-03T03:03:12;18.60;68.50
54578;DHT22;40474;49.330;8.130;2022-09-03T03:05:43;18.70;68.90
54578;DHT22;40474;49.330;8.130;2022-09-03T03:08:10;18.70;68.30
54578;DHT22;40474;49.330;8.130;2022-09-03T03:10:37;18.70;68.40
54578;DHT22;40474;49.330;8.130;2022-09-03T03:13:04;18.70;69.00
54578;DHT22;40474;49.330;8.130;2022-09-03T03:15:31;18.80;68.80
54578;DHT22;40474;49.330;8.130;2022-09-03T03:17:57;18.80;69.60
54578;DHT22;40474;49.330;8.130;2022-09-03T03:20:24;18.80;69.60
54578;DHT22;40474;49.330;8.130;2022-09-03T03:22:50;18.80;70.00
54578;DHT22;40474;49.330;8.130;2022-09-03T03:25:17;18.80;69.70
54578;DHT22;40474;49.330;8.130;2022-09-03T03:27:44;18.80;68.90
54578;DHT22;40474;49.330;8.130;2022-09-03T03:30:11;18.90;70.10
54578;DHT22;40474;49.330;8.130;2022-09-03T03:32:38;18.90;69.70
54578;DHT22;40474;49.330;8.130;2022-09-03T03:35:05;18.90;69.20
54578;DHT22;40474;49.330;8.130;2022-09-03T03:37:32;18.90;69.90
54578;DHT22;40474;49.330;8.130;2022-09-03T03:40:01;18.90;69.80
54578;DHT22;40474;49.330;8.130;2022-09-03T03:42:31;19.00;69.60
54578;DHT22;40474;49.330;8.130;2022-09-03T03:44:58;19.00;69.40
54578;DHT22;40474;49.330;8.130;2022-09-03T03:47:24;19.00;69.00
54578;DHT22;40474;49.330;8.130;2022-09-03T03:49:51;19.10;69.10
54578;DHT22;40474;49.330;8.130;2022-09-03T03:52:18;19.00;69.20
54578;DHT22;40474;49.330;8.130;2022-09-03T03:54:44;19.10;69.20
54578;DHT22;40474;49.330;8.130;2022-09-03T03:57:11;19.10;69.70
54578;DHT22;40474;49.330;8.130;2022-09-03T03:59:38;19.10;70.00
54578;DHT22;40474;49.330;8.130;2022-09-03T04:02:05;19.10;70.30
54578;DHT22;40474;49.330;8.130;2022-09-03T04:04:32;19.10;70.70
54578;DHT22;40474;49.330;8.130;2022-09-03T04:06:58;19.10;76.00
54578;DHT22;40474;49.330;8.130;2022-09-03T04:09:25;19.10;76.70
54578;DHT22;40474;49.330;8.130;2022-09-03T04:11:52;19.00;78.10
54578;DHT22;40474;49.330;8.130;2022-09-03T04:14:18;18.90;78.90
54578;DHT22;40474;49.330;8.130;2022-09-03T04:16:45;18.70;82.40
54578;DHT22;40474;49.330;8.130;2022-09-03T04:19:12;18.60;81.20
54578;DHT22;40474;49.330;8.130;2022-09-03T04:21:39;18.60;84.90
54578;DHT22;40474;49.330;8.130;2022-09-03T04:24:05;18.40;86.70
54578;DHT22;40474;49.330;8.130;2022-09-03T04:26:32;18.40;89.30
54578;DHT22;40474;49.330;8.130;2022-09-03T04:29:02;18.20;87.70
54578;DHT22;40474;49.330;8.130;2022-09-03T04:31:30;18.20;89.60
54578;DHT22;40474;49.330;8.130;2022-09-03T04:33:57;18.00;90.40
54578;DHT22;40474;49.330;8.130;2022-09-03T04:36:25;18.00;90.90
54578;DHT22;40474;49.330;8.130;2022-09-03T04:39:02;18.00;91.10
54578;DHT22;40474;49.330;8.130;2022-09-03T04:41:29;18.10;90.40
54578;DHT22;40474;49.330;8.130;2022-09-03T04:43:57;18.20;90.80
54578;DHT22;40474;49.330;8.130;2022-09-03T04:46:27;18.20;91.20
54578;DHT22;40474;49.330;8.130;2022-09-03T04:48:59;18.30;91.10
54578;DHT22;40474;49.330;8.130;2022-09-03T04:51:26;18.20;91.30
54578;DHT22;40474;49.330;8.130;2022-09-03T04:53:57;18.30;90.40
54578;DHT22;40474;49.330;8.130;2022-09-03T04:56:26;18.40;91.40
54578;DHT22;40474;49.330;8.130;2022-09-03T04:58:55;18.40;91.20
54578;DHT22;40474;49.330;8.130;2022-09-03T05:01:29;18.50;90.70
54578;DHT22;40474;49.330;8.130;2022-09-03T05:03:57;18.50;90.50
54578;DHT22;40474;49.330;8.130;2022-09-03T05:06:24;18.50;90.80
54578;DHT22;40474;49.330;8.130;2022-09-03T05:08:52;18.50;89.70
54578;DHT22;40474;49.330;8.130;2022-09-03T05:11:19;18.60;90.10
54578;DHT22;40474;49.330;8.130;2022-09-03T05:13:46;18.70;90.20
54578;DHT22;40474;49.330;8.130;2022-09-03T05:16:14;18.70;90.10
54578;DHT22;40474;49.330;8.130;2022-09-03T05:18:41;18.80;90.00
54578;DHT22;40474;49.330;8.130;2022-09-03T05:21:09;18.90;90.10
54578;DHT22;40474;49.330;8.130;2022-09-03T05:23:40;18.80;90.80
54578;DHT22;40474;49.330;8.130;2022-09-03T05:26:11;18.90;89.80
54578;DHT22;40474;49.330;8.130;2022-09-03T05:28:39;18.90;89.00
54578;DHT22;40474;49.330;8.130;2022-09-03T05:33:33;18.90;90.00
54578;DHT22;40474;49.330;8.130;2022-09-03T05:36:01;19.00;90.80
54578;DHT22;40474;49.330;8.130;2022-09-03T05:38:28;18.90;91.00
54578;DHT22;40474;49.330;8.130;2022-09-03T05:40:58;19.00;91.20
54578;DHT22;40474;49.330;8.130;2022-09-03T05:43:26;19.00;93.40
54578;DHT22;40474;49.330;8.130;2022-09-03T05:46:12;18.80;93.50
54578;DHT22;40474;49.330;8.130;2022-09-03T05:48:40;18.60;94.70
54578;DHT22;40474;49.330;8.130;2022-09-03T05:53:35;18.30;95.40
54578;DHT22;40474;49.330;8.130;2022-09-03T05:56:04;18.10;96.00
54578;DHT22;40474;49.330;8.130;2022-09-03T05:58:35;18.00;96.20
54578;DHT22;40474;49.330;8.130;2022-09-03T06:01:09;17.80;96.10
54578;DHT22;40474;49.330;8.130;2022-09-03T06:03:36;17.70;96.30
54578;DHT22;40474;49.330;8.130;2022-09-03T06:06:02;17.60;97.70
54578;DHT22;40474;49.330;8.130;2022-09-03T06:08:30;17.60;97.40
54578;DHT22;40474;49.330;8.130;2022-09-03T06:10:58;17.60;97.50
54578;DHT22;40474;49.330;8.130;2022-09-03T06:13:24;17.70;96.60
54578;DHT22;40474;49.330;8.130;2022-09-03T06:15:58;17.70;96.30
54578;DHT22;40474;49.330;8.130;2022-09-03T06:18:25;17.70;96.20
54578;DHT22;40474;49.330;8.130;2022-09-03T06:20:55;17.60;96.10
54578;DHT22;40474;49.330;8.130;2022-09-03T06:23:22;17.60;97.40
54578;DHT22;40474;49.330;8.130;2022-09-03T06:25:58;17.50;98.00
54578;DHT22;40474;49.330;8.130;2022-09-03T06:28:34;17.50;97.60
54578;DHT22;40474;49.330;8.130;2022-09-03T06:31:02;17.60;97.10
54578;DHT22;40474;49.330;8.130;2022-09-03T06:33:29;17.60;97.10
54578;DHT22;40474;49.330;8.130;2022-09-03T06:35:57;17.70;96.50
54578;DHT22;40474;49.330;8.130;2022-09-03T06:38:28;17.60;97.50
54578;DHT22;40474;49.330;8.130;2022-09-03T06:40:58;17.60;97.40
54578;DHT22;40474;49.330;8.130;2022-09-03T06:43:29;17.50;97.00
54578;DHT22;40474;49.330;8.130;2022-09-03T06:45:57;17.40;97.60
54578;DHT22;40474;49.330;8.130;2022-09-03T06:48:24;17.40;96.50
54578;DHT22;40474;49.330;8.130;2022-09-03T06:51:00;17.40;98.20
54578;DHT22;40474;49.330;8.130;2022-09-03T06:53:31;17.40;98.00
54578;DHT22;40474;49.330;8.130;2022-09-03T06:55:59;17.50;96.60
54578;DHT22;40474;49.330;8.130;2022-09-03T06:58:30;17.50;96.40
54578;DHT22;40474;49.330;8.130;2022-09-03T07:01:04;17.50;97.10
54578;DHT22;40474;49.330;8.130;2022-09-03T07:03:32;17.40;96.40
54578;DHT22;40474;49.330;8.130;2022-09-03T07:06:09;17.40;96.60
54578;DHT22;40474;49.330;8.130;2022-09-03T07:08:36;17.40;98.30
54578;DHT22;40474;49.330;8.130;2022-09-03T07:11:04;17.30;98.50
54578;DHT22;40474;49.330;8.130;2022-09-03T07:13:35;17.40;97.50
54578;DHT22;40474;49.330;8.130;2022-09-03T07:16:03;17.40;98.60
54578;DHT22;40474;49.330;8.130;2022-09-03T07:18:30;17.30;99.20
54578;DHT22;40474;49.330;8.130;2022-09-03T07:20:58;17.30;98.60
54578;DHT22;40474;49.330;8.130;2022-09-03T07:23:25;17.40;98.70
54578;DHT22;40474;49.330;8.130;2022-09-03T07:25:55;17.40;98.70
54578;DHT22;40474;49.330;8.130;2022-09-03T07:28:22;17.40;98.00
54578;DHT22;40474;49.330;8.130;2022-09-03T07:30:50;17.40;98.40
54578;DHT22;40474;49.330;8.130;2022-09-03T07:33:17;17.30;98.90
54578;DHT22;40474;49.330;8.130;2022-09-03T07:35:44;17.30;99.00
54578;DHT22;40474;49.330;8.130;2022-09-03T07:38:18;17.20;98.70
54578;DHT22;40474;49.330;8.130;2022-09-03T07:40:55;17.10;98.60
54578;DHT22;40474;49.330;8.130;2022-09-03T07:43:23;17.10;98.30
54578;DHT22;40474;49.330;8.130;2022-09-03T07:45:49;17.20;99.60
54578;DHT22;40474;49.330;8.130;2022-09-03T07:48:17;17.30;99.60
54578;DHT22;40474;49.330;8.130;2022-09-03T07:50:44;17.30;98.80
54578;DHT22;40474;49.330;8.130;2022-09-03T07:53:14;17.30;99.80
54578;DHT22;40474;49.330;8.130;2022-09-03T07:55:42;17.40;99.70
54578;DHT22;40474;49.330;8.130;2022-09-03T07:58:10;17.40;99.60
54578;DHT22;40474;49.330;8.130;2022-09-03T08:00:37;17.40;99.60
54578;DHT22;40474;49.330;8.130;2022-09-03T08:03:05;17.40;98.00
54578;DHT22;40474;49.330;8.130;2022-09-03T08:05:34;17.40;97.30
54578;DHT22;40474;49.330;8.130;2022-09-03T08:08:02;17.40;98.20
54578;DHT22;40474;49.330;8.130;2022-09-03T08:10:34;17.60;98.00
54578;DHT22;40474;49.330;8.130;2022-09-03T08:13:01;17.70;99.10
54578;DHT22;40474;49.330;8.130;2022-09-03T08:15:31;17.80;98.30
54578;DHT22;40474;49.330;8.130;2022-09-03T08:17:58;17.80;98.50
54578;DHT22;40474;49.330;8.130;2022-09-03T08:20:31;17.80;98.70
54578;DHT22;40474;49.330;8.130;2022-09-03T08:23:01;17.90;99.40
54578;DHT22;40474;49.330;8.130;2022-09-03T08:25:28;18.00;98.60
54578;DHT22;40474;49.330;8.130;2022-09-03T08:27:57;17.90;97.70
54578;DHT22;40474;49.330;8.130;2022-09-03T08:30:24;17.90;97.50
54578;DHT22;40474;49.330;8.130;2022-09-03T08:32:52;17.80;97.00
54578;DHT22;40474;49.330;8.130;2022-09-03T08:35:18;17.90;98.10
54578;DHT22;40474;49.330;8.130;2022-09-03T08:37:47;18.10;98.40
54578;DHT22;40474;49.330;8.130;2022-09-03T08:40:22;18.30;98.20
54578;DHT22;40474;49.330;8.130;2022-09-03T08:45:35;18.80;97.10
54578;DHT22;40474;49.330;8.130;2022-09-03T08:48:08;18.90;96.90
54578;DHT22;40474;49.330;8.130;2022-09-03T08:50:45;19.00;97.40
54578;DHT22;40474;49.330;8.130;2022-09-03T08:53:36;19.10;97.00
54578;DHT22;40474;49.330;8.130;2022-09-03T08:56:25;19.30;96.10
54578;DHT22;40474;49.330;8.130;2022-09-03T08:58:51;19.40;95.50
54578;DHT22;40474;49.330;8.130;2022-09-03T09:01:34;19.50;95.70
54578;DHT22;40474;49.330;8.130;2022-09-03T09:09:12;19.20;96.30
54578;DHT22;40474;49.330;8.130;2022-09-03T09:12:00;19.70;95.60
54578;DHT22;40474;49.330;8.130;2022-09-03T09:20:01;23.80;88.00
54578;DHT22;40474;49.330;8.130;2022-09-03T09:22:40;24.00;87.00
54578;DHT22;40474;49.330;8.130;2022-09-03T09:25:14;24.10;86.20
54578;DHT22;40474;49.330;8.130;2022-09-03T09:28:01;23.50;85.90
54578;DHT22;40474;49.330;8.130;2022-09-03T09:30:29;22.90;87.00
54578;DHT22;40474;49.330;8.130;2022-09-03T09:32:58;22.40;90.60
54578;DHT22;40474;49.330;8.130;2022-09-03T09:35:26;22.20;90.90
54578;DHT22;40474;49.330;8.130;2022-09-03T09:37:53;22.00;90.70
54578;DHT22;40474;49.330;8.130;2022-09-03T09:40:30;21.70;91.00
54578;DHT22;40474;49.330;8.130;2022-09-03T09:45:29;20.90;92.40
54578;DHT22;40474;49.330;8.130;2022-09-03T09:48:00;20.60;93.40
54578;DHT22;40474;49.330;8.130;2022-09-03T09:50:27;20.40;94.00
54578;DHT22;40474;49.330;8.130;2022-09-03T09:53:04;20.40;95.90
54578;DHT22;40474;49.330;8.130;2022-09-03T09:55:53;20.40;94.60
54578;DHT22;40474;49.330;8.130;2022-09-03T09:58:21;20.50;95.80
54578;DHT22;40474;49.330;8.130;2022-09-03T10:01:02;20.40;94.60
54578;DHT22;40474;49.330;8.130;2022-09-03T10:03:30;20.40;95.40
54578;DHT22;40474;49.330;8.130;2022-09-03T10:06:08;20.30;95.00
54578;DHT22;40474;49.330;8.130;2022-09-03T10:09:14;20.40;94.30
54578;DHT22;40474;49.330;8.130;2022-09-03T10:11:42;20.60;95.10
54578;DHT22;40474;49.330;8.130;2022-09-03T10:14:58;20.90;95.10
54578;DHT22;40474;49.330;8.130;2022-09-03T10:22:48;21.10;94.00
54578;DHT22;40474;49.330;8.130;2022-09-03T10:25:24;21.10;94.50
54578;DHT22;40474;49.330;8.130;2022-09-03T10:27:52;21.10;94.30
54578;DHT22;40474;49.330;8.130;2022-09-03T10:30:25;20.90;93.90
54578;DHT22;40474;49.330;8.130;2022-09-03T10:33:07;21.10;95.20
54578;DHT22;40474;49.330;8.130;2022-09-03T10:35:41;21.20;93.60
54578;DHT22;40474;49.330;8.130;2022-09-03T10:38:16;21.20;94.30
54578;DHT22;40474;49.330;8.130;2022-09-03T10:40:51;21.30;93.90
54578;DHT22;40474;49.330;8.130;2022-09-03T11:01:23;26.00;77.40
54578;DHT22;40474;49.330;8.130;2022-09-03T11:03:58;25.40;81.90
54578;DHT22;40474;49.330;8.130;2022-09-03T11:06:30;25.00;82.00
54578;DHT22;40474;49.330;8.130;2022-09-03T11:11:41;25.40;86.20
54578;DHT22;40474;49.330;8.130;2022-09-03T11:14:10;26.60;79.10
54578;DHT22;40474;49.330;8.130;2022-09-03T11:16:40;28.10;76.60
54578;DHT22;40474;49.330;8.130;2022-09-03T11:19:10;28.80;74.70
54578;DHT22;40474;49.330;8.130;2022-09-03T11:21:38;29.00;66.00
54578;DHT22;40474;49.330;8.130;2022-09-03T11:24:11;28.50;67.20
54578;DHT22;40474;49.330;8.130;2022-09-03T11:26:42;27.50;69.70
54578;DHT22;40474;49.330;8.130;2022-09-03T11:29:19;27.00;73.30
54578;DHT22;40474;49.330;8.130;2022-09-03T11:31:55;26.70;74.30
54578;DHT22;40474;49.330;8.130;2022-09-03T11:37:05;25.80;79.00
54578;DHT22;40474;49.330;8.130;2022-09-03T11:39:37;26.10;80.10
54578;DHT22;40474;49.330;8.130;2022-09-03T11:42:09;26.30;78.20
54578;DHT22;40474;49.330;8.130;2022-09-03T11:44:37;26.80;76.90
54578;DHT22;40474;49.330;8.130;2022-09-03T11:47:23;28.10;73.60
54578;DHT22;40474;49.330;8.130;2022-09-03T11:49:51;28.20;70.10
54578;DHT22;40474;49.330;8.130;2022-09-03T11:52:28;27.50;71.50
54578;DHT22;40474;49.330;8.130;2022-09-03T11:54:55;27.10;78.50
54578;DHT22;40474;49.330;8.130;2022-09-03T11:57:22;26.70;74.80
54578;DHT22;40474;49.330;8.130;2022-09-03T11:59:51;26.00;76.90
54578;DHT22;40474;49.330;8.130;2022-09-03T12:05:04;24.90;80.90
54578;DHT22;40474;49.330;8.130;2022-09-03T12:13:11;24.80;83.40
54578;DHT22;40474;49.330;8.130;2022-09-03T12:15:52;24.40;87.10
54578;DHT22;40474;49.330;8.130;2022-09-03T12:18:22;24.70;85.70
54578;DHT22;40474;49.330;8.130;2022-09-03T12:23:39;28.50;73.60
54578;DHT22;40474;49.330;8.130;2022-09-03T12:26:11;29.90;64.20
54578;DHT22;40474;49.330;8.130;2022-09-03T12:28:47;29.60;65.70
54578;DHT22;40474;49.330;8.130;2022-09-03T12:31:19;29.10;69.20
54578;DHT22;40474;49.330;8.130;2022-09-03T12:33:47;28.00;67.80
54578;DHT22;40474;49.330;8.130;2022-09-03T12:36:14;27.30;71.40
54578;DHT22;40474;49.330;8.130;2022-09-03T12:38:41;28.40;71.20
54578;DHT22;40474;49.330;8.130;2022-09-03T12:41:29;29.10;67.20
54578;DHT22;40474;49.330;8.130;2022-09-03T12:43:57;29.00;66.00
54578;DHT22;40474;49.330;8.130;2022-09-03T12:46:26;30.00;64.40
54578;DHT22;40474;49.330;8.130;2022-09-03T12:49:03;30.90;61.60
54578;DHT22;40474;49.330;8.130;2022-09-03T12:52:00;31.60;59.60
54578;DHT22;40474;49.330;8.130;2022-09-03T12:54:32;30.30;59.50
54578;DHT22;40474;49.330;8.130;2022-09-03T12:56:59;28.90;62.70
54578;DHT22;40474;49.330;8.130;2022-09-03T12:59:26;27.90;67.10
54578;DHT22;40474;49.330;8.130;2022-09-03T13:01:55;27.80;68.30
54578;DHT22;40474;49.330;8.130;2022-09-03T13:04:24;28.10;66.90
54578;DHT22;40474;49.330;8.130;2022-09-03T13:06:53;28.10;65.20
54578;DHT22;40474;49.330;8.130;2022-09-03T13:09:22;28.80;63.70
54578;DHT22;40474;49.330;8.130;2022-09-03T13:11:49;30.10;63.30
54578;DHT22;40474;49.330;8.130;2022-09-03T13:14:18;30.90;60.10
54578;DHT22;40474;49.330;8.130;2022-09-03T13:27:02;31.60;57.80
54578;DHT22;40474;49.330;8.130;2022-09-03T13:29:38;31.50;57.60
54578;DHT22;40474;49.330;8.130;2022-09-03T13:32:24;31.40;55.30
54578;DHT22;40474;49.330;8.130;2022-09-03T13:34:53;30.80;55.90
54578;DHT22;40474;49.330;8.130;2022-09-03T13:39:53;28.80;60.70
54578;DHT22;40474;49.330;8.130;2022-09-03T13:42:32;29.40;61.70
54578;DHT22;40474;49.330;8.130;2022-09-03T13:52:50;30.30;57.90
54578;DHT22;40474;49.330;8.130;2022-09-03T13:55:26;29.40;58.90
54578;DHT22;40474;49.330;8.130;2022-09-03T13:58:03;28.60;61.50
54578;DHT22;40474;49.330;8.130;2022-09-03T14:00:37;28.50;62.00
54578;DHT22;40474;49.330;8.130;2022-09-03T14:03:07;28.10;63.30
54578;DHT22;40474;49.330;8.130;2022-09-03T14:08:24;27.50;67.90
54578;DHT22;40474;49.330;8.130;2022-09-03T14:10:56;27.30;67.30
54578;DHT22;40474;49.330;8.130;2022-09-03T14:13:34;26.90;68.40
54578;DHT22;40474;49.330;8.130;2022-09-03T14:18:36;26.10;71.20
54578;DHT22;40474;49.330;8.130;2022-09-03T14:21:15;25.70;74.40
54578;DHT22;40474;49.330;8.130;2022-09-03T14:23:48;25.50;73.70
54578;DHT22;40474;49.330;8.130;2022-09-03T14:26:18;25.20;77.20
54578;DHT22;40474;49.330;8.130;2022-09-03T14:34:10;24.40;79.00
54578;DHT22;40474;49.330;8.130;2022-09-03T14:52:52;20.30;99.90
54578;DHT22;40474;49.330;8.130;2022-09-03T14:55:27;20.30;99.90
54578;DHT22;40474;49.330;8.130;2022-09-03T15:00:32;20.10;99.90
54578;DHT22;40474;49.330;8.130;2022-09-03T15:03:17;20.20;99.90
54578;DHT22;40474;49.330;8.130;2022-09-03T15:05:52;20.20;99.90
54578;DHT22;40474;49.330;8.130;2022-09-03T15:11:15;20.10;99.90
54578;DHT22;40474;49.330;8.130;2022-09-03T15:13:47;20.20;99.90
54578;DHT22;40474;49.330;8.130;2022-09-03T15:24:25;20.30;99.90
54578;DHT22;40474;49.330;8.130;2022-09-03T15:27:07;20.30;99.90
54578;DHT22;40474;49.330;8.130;2022-09-03T15:35:01;20.40;99.90
54578;DHT22;40474;49.330;8.130;2022-09-03T15:40:11;20.40;99.90
54578;DHT22;40474;49.330;8.130;2022-09-03T15:42:42;20.40;99.90
54578;DHT22;40474;49.330;8.130;2022-09-03T15:45:15;20.30;99.90
54578;DHT22;40474;49.330;8.130;2022-09-03T15:50:33;20.30;99.90
54578;DHT22;40474;49.330;8.130;2022-09-03T15:55:37;20.30;99.90
54578;DHT22;40474;49.330;8.130;2022-09-03T15:58:07;20.30;99.90
54578;DHT22;40474;49.330;8.130;2022-09-03T16:03:12;20.40;99.90
54578;DHT22;40474;49.330;8.130;2022-09-03T16:05:52;20.50;99.90
54578;DHT22;40474;49.330;8.130;2022-09-03T16:08:28;20.60;99.90
54578;DHT22;40474;49.330;8.130;2022-09-03T16:11:06;20.60;99.90
54578;DHT22;40474;49.330;8.130;2022-09-03T16:13:39;20.80;99.90
54578;DHT22;40474;49.330;8.130;2022-09-03T16:16:10;21.00;99.90
54578;DHT22;40474;49.330;8.130;2022-09-03T16:18:39;21.10;99.90
54578;DHT22;40474;49.330;8.130;2022-09-03T16:21:25;21.20;99.90
54578;DHT22;40474;49.330;8.130;2022-09-03T16:23:55;21.30;99.90
54578;DHT22;40474;49.330;8.130;2022-09-03T16:26:34;21.50;99.90
54578;DHT22;40474;49.330;8.130;2022-09-03T16:29:06;21.70;99.90
54578;DHT22;40474;49.330;8.130;2022-09-03T16:34:28;21.70;99.90
54578;DHT22;40474;49.330;8.130;2022-09-03T16:37:02;21.80;99.90
54578;DHT22;40474;49.330;8.130;2022-09-03T16:42:28;21.80;99.90
54578;DHT22;40474;49.330;8.130;2022-09-03T16:47:38;21.80;99.90
54578;DHT22;40474;49.330;8.130;2022-09-03T16:55:24;21.80;99.90
54578;DHT22;40474;49.330;8.130;2022-09-03T16:57:56;21.80;99.90
54578;DHT22;40474;49.330;8.130;2022-09-03T17:00:27;21.80;99.90
54578;DHT22;40474;49.330;8.130;2022-09-03T17:03:07;21.80;99.90
54578;DHT22;40474;49.330;8.130;2022-09-03T17:08:26;21.90;99.90
54578;DHT22;40474;49.330;8.130;2022-09-03T17:19:34;21.50;99.90
54578;DHT22;40474;49.330;8.130;2022-09-03T17:22:16;21.40;99.90
54578;DHT22;40474;49.330;8.130;2022-09-03T17:24:45;21.30;99.90
54578;DHT22;40474;49.330;8.130;2022-09-03T17:35:16;20.90;99.90
54578;DHT22;40474;49.330;8.130;2022-09-03T17:43:27;20.70;99.90
54578;DHT22;40474;49.330;8.130;2022-09-03T17:48:50;20.50;99.90
54578;DHT22;40474;49.330;8.130;2022-09-03T17:53:48;20.40;99.90
54578;DHT22;40474;49.330;8.130;2022-09-03T17:58:48;20.20;99.90
54578;DHT22;40474;49.330;8.130;2022-09-03T18:01:20;20.20;99.90
54578;DHT22;40474;49.330;8.130;2022-09-03T18:03:53;20.20;99.90
54578;DHT22;40474;49.330;8.130;2022-09-03T18:06:31;20.20;99.90
54578;DHT22;40474;49.330;8.130;2022-09-03T18:11:29;20.20;99.90
54578;DHT22;40474;49.330;8.130;2022-09-03T18:16:27;20.20;99.90
54578;DHT22;40474;49.330;8.130;2022-09-03T18:19:11;20.20;99.90
54578;DHT22;40474;49.330;8.130;2022-09-03T18:21:45;20.20;99.90
54578;DHT22;40474;49.330;8.130;2022-09-03T18:24:40;20.20;99.90
54578;DHT22;40474;49.330;8.130;2022-09-03T18:27:31;20.10;99.90
54578;DHT22;40474;49.330;8.130;2022-09-03T18:30:17;20.00;99.90
54578;DHT22;40474;49.330;8.130;2022-09-03T18:33:03;19.90;99.90
54578;DHT22;40474;49.330;8.130;2022-09-03T18:35:48;19.80;99.90
54578;DHT22;40474;49.330;8.130;2022-09-03T18:38:35;19.70;99.90
54578;DHT22;40474;49.330;8.130;2022-09-03T18:44:12;19.60;99.90
54578;DHT22;40474;49.330;8.130;2022-09-03T18:53:33;19.40;99.90
54578;DHT22;40474;49.330;8.130;2022-09-03T18:59:14;19.20;99.90
54578;DHT22;40474;49.330;8.130;2022-09-03T19:02:05;19.20;99.90
54578;DHT22;40474;49.330;8.130;2022-09-03T19:07:46;19.10;99.90
54578;DHT22;40474;49.330;8.130;2022-09-03T19:10:46;19.10;99.90
54578;DHT22;40474;49.330;8.130;2022-09-03T19:13:34;19.10;99.90
54578;DHT22;40474;49.330;8.130;2022-09-03T19:19:37;19.10;99.90
54578;DHT22;40474;49.330;8.130;2022-09-03T19:22:34;19.20;99.90
54578;DHT22;40474;49.330;8.130;2022-09-03T19:25:20;19.20;99.90
54578;DHT22;40474;49.330;8.130;2022-09-03T19:28:10;19.20;99.90
54578;DHT22;40474;49.330;8.130;2022-09-03T19:34:08;19.30;99.90
54578;DHT22;40474;49.330;8.130;2022-09-03T19:36:59;19.30;99.90
54578;DHT22;40474;49.330;8.130;2022-09-03T19:42:51;19.30;99.90
54578;DHT22;40474;49.330;8.130;2022-09-03T19:48:40;19.10;99.90
54578;DHT22;40474;49.330;8.130;2022-09-03T19:51:35;18.90;99.90
54578;DHT22;40474;49.330;8.130;2022-09-03T19:54:24;18.90;99.90
54578;DHT22;40474;49.330;8.130;2022-09-03T19:57:10;18.80;99.90
54578;DHT22;40474;49.330;8.130;2022-09-03T19:59:57;18.80;99.90
54578;DHT22;40474;49.330;8.130;2022-09-03T20:02:54;18.70;99.90
54578;DHT22;40474;49.330;8.130;2022-09-03T20:05:40;18.70;99.90
54578;DHT22;40474;49.330;8.130;2022-09-03T20:08:25;18.60;99.90
54578;DHT22;40474;49.330;8.130;2022-09-03T20:11:15;18.60;99.90
54578;DHT22;40474;49.330;8.130;2022-09-03T20:13:42;18.60;99.90
54578;DHT22;40474;49.330;8.130;2022-09-03T20:16:35;18.60;99.90
54578;DHT22;40474;49.330;8.130;2022-09-03T20:19:16;18.60;99.90
54578;DHT22;40474;49.330;8.130;2022-09-03T20:21:48;18.50;99.90
54578;DHT22;40474;49.330;8.130;2022-09-03T20:27:02;18.50;99.90
54578;DHT22;40474;49.330;8.130;2022-09-03T20:32:10;18.40;99.90
54578;DHT22;40474;49.330;8.130;2022-09-03T20:34:44;18.30;99.90
54578;DHT22;40474;49.330;8.130;2022-09-03T20:37:30;18.30;99.90
54578;DHT22;40474;49.330;8.130;2022-09-03T20:40:05;18.30;99.90
54578;DHT22;40474;49.330;8.130;2022-09-03T20:45:23;18.30;99.90